createdAt,value
2023-04-18T00:00:28.494Z,72.10
2023-04-18T00:03:30.849Z,71.78
2023-04-18T00:06:32.910Z,72.25
2023-04-18T00:09:36.212Z,72.14
2023-04-18T00:12:39.208Z,72.66
2023-04-18T00:15:43.927Z,72.45
2023-04-18T00:18:46.523Z,72.14
2023-04-18T00:21:49.547Z,72.58
2023-04-18T00:24:52.740Z,74.93
2023-04-18T00:27:55.446Z,71.53
2023-04-18T00:30:57.294Z,72.38
2023-04-18T00:33:59.426Z,70.55
2023-04-18T00:37:01.165Z,70.65
2023-04-18T00:40:05.702Z,71.13
2023-04-18T00:43:08.584Z,72.10
2023-04-18T00:46:11.024Z,73.07
2023-04-18T00:49:13.708Z,70.21
2023-04-18T00:52:16.634Z,70.30
2023-04-18T00:55:20.652Z,70.87
2023-04-18T00:58:24.164Z,69.25
2023-04-18T01:01:26.296Z,69.75
2023-04-18T01:04:28.571Z,69.73
2023-04-18T01:07:31.139Z,69.74
2023-04-18T01:10:36.150Z,70.99
2023-04-18T01:13:38.020Z,71.62
2023-04-18T01:16:40.096Z,69.66
2023-04-18T01:19:42.751Z,71.22
2023-04-18T01:22:44.513Z,70.10
2023-04-18T01:25:49.454Z,70.45
2023-04-18T01:28:51.387Z,68.25
2023-04-18T01:31:53.161Z,67.97
2023-04-18T01:34:55.325Z,68.45
2023-04-18T01:37:57.985Z,67.22
2023-04-18T01:41:02.495Z,68.21
2023-04-18T01:44:04.811Z,68.57
2023-04-18T01:47:07.279Z,68.13
2023-04-18T01:50:09.724Z,67.48
2023-04-18T01:53:12.284Z,68.47
2023-04-18T01:56:15.474Z,68.55
2023-04-18T01:59:17.241Z,68.77
2023-04-18T02:02:19.242Z,68.03
2023-04-18T02:05:21.515Z,67.92
2023-04-18T02:08:23.303Z,69.31
2023-04-18T02:11:26.507Z,67.29
2023-04-18T02:14:31.350Z,66.35
2023-04-18T02:17:33.773Z,66.82
2023-04-18T02:20:36.411Z,67.37
2023-04-18T02:23:38.219Z,66.67
2023-04-18T02:26:41.417Z,66.34
2023-04-18T02:29:44.146Z,66.69
2023-04-18T02:32:46.071Z,68.20
2023-04-18T02:35:48.178Z,66.49
2023-04-18T02:38:49.988Z,65.78
2023-04-18T02:41:53.557Z,66.71
2023-04-18T02:44:55.520Z,66.95
2023-04-18T02:47:57.350Z,66.02
2023-04-18T02:51:03.454Z,67.08
2023-04-18T02:54:05.499Z,66.43
2023-04-18T02:57:08.681Z,66.66
2023-04-18T03:00:11.788Z,67.74
2023-04-18T03:03:13.678Z,67.44
2023-04-18T03:06:15.846Z,66.78
2023-04-18T03:09:18.195Z,67.11
2023-04-18T03:12:21.332Z,68.79
2023-04-18T03:15:23.297Z,68.25
2023-04-18T03:18:26.151Z,68.94
2023-04-18T03:21:27.997Z,69.24
2023-04-18T03:24:30.047Z,72.23
2023-04-18T03:27:33.306Z,71.88
2023-04-18T03:30:36.131Z,70.64
2023-04-18T03:33:39.274Z,73.26
2023-04-18T03:36:42.093Z,73.37
2023-04-18T03:39:43.934Z,74.68
2023-04-18T03:42:47.055Z,74.49
2023-04-18T03:45:49.334Z,74.43
2023-04-18T03:48:51.184Z,73.46
2023-04-18T03:51:54.155Z,71.92
2023-04-18T03:54:56.054Z,74.43
2023-04-18T03:57:59.398Z,75.02
2023-04-18T04:01:01.251Z,73.44
2023-04-18T04:04:03.369Z,75.02
2023-04-18T04:07:06.256Z,74.95
2023-04-18T04:10:08.793Z,74.32
2023-04-18T04:13:12.308Z,75.03
2023-04-18T04:16:14.207Z,75.89
2023-04-18T04:19:16.080Z,76.46
2023-04-18T04:22:17.988Z,77.63
2023-04-18T04:25:20.192Z,75.38
2023-04-18T04:28:23.941Z,76.73
2023-04-18T04:31:26.159Z,76.11
2023-04-18T04:34:28.056Z,76.26
2023-04-18T04:37:29.927Z,76.14
2023-04-18T04:40:31.754Z,75.82
2023-04-18T04:43:34.966Z,74.55
2023-04-18T04:46:39.493Z,75.34
2023-04-18T04:49:41.261Z,77.02
2023-04-18T04:52:43.246Z,74.51
2023-04-18T04:55:45.550Z,74.70
2023-04-18T04:58:49.256Z,74.65
2023-04-18T05:01:56.247Z,75.46
2023-04-18T05:04:58.167Z,73.58
2023-04-18T05:08:00.971Z,73.49
2023-04-18T05:11:02.859Z,72.96
2023-04-18T05:14:06.186Z,73.95
2023-04-18T05:17:08.817Z,72.85
2023-04-18T05:20:11.515Z,74.26
2023-04-18T05:23:13.770Z,72.89
2023-04-18T05:26:15.711Z,74.39
2023-04-18T05:29:18.912Z,72.85
2023-04-18T05:32:22.292Z,70.88
2023-04-18T05:35:24.133Z,72.24
2023-04-18T05:38:26.868Z,75.03
2023-04-18T05:41:28.732Z,72.10
2023-04-18T05:44:32.156Z,68.94
2023-04-18T05:47:34.076Z,70.64
2023-04-18T05:50:36.773Z,69.10
2023-04-18T05:53:38.622Z,71.92
2023-04-18T05:56:40.582Z,70.81
2023-04-18T05:59:44.406Z,69.38
2023-04-18T06:02:46.658Z,74.70
2023-04-18T06:05:49.849Z,74.96
2023-04-18T06:08:51.704Z,73.57
2023-04-18T06:11:53.570Z,77.04
2023-04-18T06:14:56.757Z,72.69
2023-04-18T06:17:58.714Z,71.08
2023-04-18T06:21:00.598Z,74.60
2023-04-18T06:24:02.497Z,72.98
2023-04-18T06:27:05.250Z,72.66
2023-04-18T06:30:10.722Z,73.82
2023-04-18T06:33:12.506Z,70.16
2023-04-18T06:36:14.677Z,68.36
2023-04-18T06:39:16.506Z,66.70
2023-04-18T06:42:19.157Z,65.29
2023-04-18T06:45:24.974Z,66.13
2023-04-18T06:48:26.872Z,67.89
2023-04-18T06:51:29.093Z,66.84
2023-04-18T06:54:30.924Z,66.36
2023-04-18T06:57:33.557Z,63.59
2023-04-18T07:00:36.829Z,66.07
2023-04-18T07:03:39.605Z,68.30
2023-04-18T07:06:42.706Z,68.11
2023-04-18T07:09:44.479Z,68.78
2023-04-18T07:12:47.617Z,67.69
2023-04-18T07:15:51.362Z,70.19
2023-04-18T07:18:53.492Z,71.60
2023-04-18T07:21:56.079Z,67.64
2023-04-18T07:24:58.552Z,68.26
2023-04-18T07:28:00.430Z,71.23
2023-04-18T07:31:04.642Z,69.43
2023-04-18T07:34:06.497Z,70.02
2023-04-18T07:37:08.622Z,68.30
2023-04-18T07:40:11.600Z,72.41
2023-04-18T07:43:15.152Z,70.20
2023-04-18T07:46:18.616Z,68.85
2023-04-18T07:49:20.550Z,69.60
2023-04-18T07:52:22.538Z,68.91
2023-04-18T07:55:24.488Z,67.89
2023-04-18T07:58:26.394Z,70.16
2023-04-18T08:01:29.702Z,68.26
2023-04-18T08:04:31.704Z,69.55
2023-04-18T08:07:34.422Z,68.00
2023-04-18T08:10:36.902Z,69.89
2023-04-18T08:13:39.387Z,67.88
2023-04-18T08:16:42.623Z,68.45
2023-04-18T08:19:45.694Z,66.51
2023-04-18T08:23:04.688Z,67.17
2023-04-18T08:26:08.661Z,64.51
2023-04-18T08:29:11.877Z,66.17
2023-04-18T08:32:15.448Z,63.71
2023-04-18T08:35:17.415Z,63.17
2023-04-18T08:38:19.529Z,61.84
2023-04-18T08:41:23.700Z,60.55
2023-04-18T08:44:25.778Z,60.08
2023-04-18T08:47:31.206Z,60.66
2023-04-18T08:50:33.178Z,62.81
2023-04-18T08:53:35.320Z,63.03
2023-04-18T08:56:37.580Z,60.95
2023-04-18T08:59:40.203Z,60.71
2023-04-18T09:02:44.667Z,61.29
2023-04-18T09:06:08.406Z,61.34
2023-04-18T09:09:10.329Z,59.11
2023-04-18T09:12:14.572Z,60.21
2023-04-18T09:15:18.954Z,58.52
2023-04-18T09:18:22.173Z,59.10
2023-04-18T09:21:24.323Z,58.29
2023-04-18T09:24:29.333Z,60.91
2023-04-18T09:27:34.617Z,59.83
2023-04-18T09:30:39.452Z,60.48
2023-04-18T09:33:54.166Z,59.47
2023-04-18T09:37:07.773Z,59.93
2023-04-18T09:40:18.082Z,60.67
2023-04-18T09:43:21.028Z,58.29
2023-04-18T09:46:22.973Z,57.39
2023-04-18T09:49:27.737Z,59.32
2023-04-18T09:52:34.932Z,60.26
2023-04-18T09:55:40.088Z,57.03
2023-04-18T09:58:43.989Z,57.42
2023-04-18T10:01:48.495Z,55.64
2023-04-18T10:04:54.357Z,54.71
2023-04-18T10:07:57.909Z,58.21
2023-04-18T10:10:59.785Z,54.01
2023-04-18T10:14:07.022Z,53.74
2023-04-18T10:17:09.274Z,53.94
2023-04-18T10:20:20.519Z,54.13
2023-04-18T10:23:36.610Z,53.78
2023-04-18T10:26:47.049Z,53.65
2023-04-18T10:29:50.715Z,55.19
2023-04-18T10:32:55.387Z,55.42
2023-04-18T10:36:05.189Z,53.94
2023-04-18T10:39:21.555Z,52.54
2023-04-18T10:43:06.897Z,54.92
2023-04-18T10:46:23.844Z,51.79
2023-04-18T10:49:31.112Z,50.70
2023-04-18T10:52:35.864Z,51.37
2023-04-18T10:55:43.714Z,50.33
2023-04-18T10:58:51.033Z,51.72
2023-04-18T11:01:55.995Z,49.02
2023-04-18T11:04:59.208Z,51.31
2023-04-18T11:08:02.398Z,49.29
2023-04-18T11:11:09.046Z,50.84
2023-04-18T11:14:10.993Z,47.77
2023-04-18T11:17:19.743Z,48.63
2023-04-18T11:20:21.606Z,49.92
2023-04-18T11:23:25.534Z,49.33
2023-04-18T11:26:29.069Z,49.30
2023-04-18T11:29:32.690Z,50.21
2023-04-18T11:32:35.952Z,48.63
2023-04-18T11:35:39.678Z,50.09
2023-04-18T11:38:43.068Z,49.24
2023-04-18T11:41:50.372Z,48.16
2023-04-18T11:44:52.870Z,50.26
2023-04-18T11:47:59.531Z,47.61
2023-04-18T11:51:01.878Z,49.07
2023-04-18T11:54:05.301Z,49.39
2023-04-18T11:57:20.048Z,46.89
2023-04-18T12:00:32.535Z,47.63
2023-04-18T12:03:34.660Z,46.14
2023-04-18T12:06:46.417Z,47.08
2023-04-18T12:09:52.353Z,47.86
2023-04-18T12:12:56.529Z,46.55
2023-04-18T12:16:01.738Z,45.32
2023-04-18T12:19:03.669Z,44.16
2023-04-18T12:22:06.811Z,45.53
2023-04-18T12:25:20.053Z,44.50
2023-04-18T12:28:26.697Z,45.57
2023-04-18T12:31:28.932Z,42.41
2023-04-18T12:34:31.683Z,41.75
2023-04-18T12:37:33.588Z,44.35
2023-04-18T12:40:39.112Z,44.17
2023-04-18T12:43:40.866Z,42.65
2023-04-18T12:46:42.720Z,43.44
2023-04-18T12:49:44.728Z,42.11
2023-04-18T12:52:47.190Z,42.51
2023-04-18T12:55:51.647Z,42.70
2023-04-18T12:58:53.453Z,42.78
2023-04-18T13:01:55.730Z,40.62
2023-04-18T13:04:58.490Z,42.16
2023-04-18T13:08:12.635Z,41.71
2023-04-18T13:11:21.775Z,41.45
2023-04-18T13:14:23.741Z,43.46
2023-04-18T13:17:26.220Z,39.34
2023-04-18T13:20:28.089Z,36.31
2023-04-18T13:23:29.851Z,36.88
2023-04-18T13:26:36.051Z,36.86
2023-04-18T13:29:38.827Z,38.65
2023-04-18T13:32:41.230Z,38.20
2023-04-18T13:35:44.753Z,36.68
2023-04-18T13:38:46.620Z,36.37
2023-04-18T13:41:49.908Z,37.62
2023-04-18T13:44:51.977Z,38.59
2023-04-18T13:47:54.793Z,39.89
2023-04-18T13:50:57.255Z,37.21
2023-04-18T13:54:01.199Z,36.79
2023-04-18T13:57:04.561Z,37.66
2023-04-18T14:00:08.921Z,34.25
2023-04-18T14:03:11.571Z,35.56
2023-04-18T14:06:13.496Z,35.32
2023-04-18T14:09:16.750Z,33.84
2023-04-18T14:12:19.966Z,34.90
2023-04-18T14:15:21.740Z,32.17
2023-04-18T14:18:24.713Z,31.88
2023-04-18T14:21:27.959Z,31.52
2023-04-18T14:24:29.752Z,33.02
2023-04-18T14:27:33.941Z,31.16
2023-04-18T14:30:36.402Z,30.16
2023-04-18T14:33:38.603Z,30.05
2023-04-18T14:36:40.451Z,28.95
2023-04-18T14:39:42.287Z,31.55
2023-04-18T14:42:46.804Z,30.07
2023-04-18T14:45:48.654Z,31.08
2023-04-18T14:48:50.976Z,31.22
2023-04-18T14:51:53.443Z,31.70
2023-04-18T14:54:55.427Z,30.98
2023-04-18T14:57:58.582Z,30.92
2023-04-18T15:01:01.330Z,30.11
2023-04-18T15:04:04.435Z,30.63
2023-04-18T15:07:07.703Z,34.93
2023-04-18T15:10:12.715Z,31.95
2023-04-18T15:13:16.700Z,32.91
2023-04-18T15:16:18.532Z,35.50
2023-04-18T15:19:21.315Z,32.81
2023-04-18T15:22:23.247Z,32.09
2023-04-18T15:25:26.152Z,33.73
2023-04-18T15:28:30.899Z,34.57
2023-04-18T15:31:32.816Z,32.97
2023-04-18T15:34:35.393Z,35.73
2023-04-18T15:37:37.259Z,34.12
2023-04-18T15:40:39.110Z,34.78
2023-04-18T15:43:42.897Z,34.69
2023-04-18T15:46:44.769Z,36.16
2023-04-18T15:49:47.228Z,35.30
2023-04-18T15:52:49.167Z,34.21
2023-04-18T15:55:51.483Z,35.07
2023-04-18T15:58:57.565Z,35.14
2023-04-18T16:01:59.526Z,36.31
2023-04-18T16:05:02.218Z,36.45
2023-04-18T16:08:04.157Z,36.56
2023-04-18T16:11:06.975Z,42.49
2023-04-18T16:14:10.605Z,40.03
2023-04-18T16:17:12.381Z,41.96
2023-04-18T16:20:15.438Z,42.70
2023-04-18T16:23:17.260Z,43.13
2023-04-18T16:26:19.115Z,43.05
2023-04-18T16:29:22.670Z,44.38
2023-04-18T16:32:24.592Z,45.69
2023-04-18T16:35:26.640Z,45.35
2023-04-18T16:38:28.492Z,45.19
2023-04-18T16:41:30.958Z,42.57
2023-04-18T16:44:34.568Z,42.74
2023-04-18T16:47:36.864Z,46.41
2023-04-18T16:50:38.679Z,45.22
2023-04-18T16:53:41.175Z,47.18
2023-04-18T16:56:44.829Z,46.37
2023-04-18T16:59:50.576Z,47.43
2023-04-18T17:02:53.359Z,51.14
2023-04-18T17:05:56.195Z,47.72
2023-04-18T17:08:59.073Z,49.16
2023-04-18T17:12:01.984Z,47.25
2023-04-18T17:15:07.036Z,44.12
2023-04-18T17:18:09.308Z,43.59
2023-04-18T17:21:12.663Z,45.01
2023-04-18T17:24:15.261Z,46.25
2023-04-18T17:27:18.325Z,44.67
2023-04-18T17:30:23.073Z,48.03
2023-04-18T17:33:25.186Z,49.57
2023-04-18T17:36:29.480Z,51.13
2023-04-18T17:39:33.072Z,53.15
2023-04-18T17:42:35.893Z,50.91
2023-04-18T17:45:41.666Z,52.20
2023-04-18T17:48:47.296Z,54.26
2023-04-18T17:51:52.980Z,53.42
2023-04-18T17:54:55.851Z,55.07
2023-04-18T17:57:58.521Z,54.99
2023-04-18T18:01:04.308Z,54.18
2023-04-18T18:04:08.800Z,53.81
2023-04-18T18:07:11.916Z,53.26
2023-04-18T18:10:16.117Z,51.35
2023-04-18T18:13:20.882Z,50.16
2023-04-18T18:16:25.264Z,53.99
2023-04-18T18:19:29.434Z,51.04
2023-04-18T18:22:31.708Z,55.34
2023-04-18T18:25:37.065Z,49.74
2023-04-18T18:28:39.004Z,53.33
2023-04-18T18:31:43.975Z,50.31
2023-04-18T18:34:48.021Z,50.90
2023-04-18T18:37:51.545Z,52.80
2023-04-18T18:40:54.234Z,54.15
2023-04-18T18:43:56.954Z,52.66
2023-04-18T18:47:01.754Z,50.32
2023-04-18T18:50:07.959Z,53.14
2023-04-18T18:53:12.243Z,53.42
2023-04-18T18:56:16.705Z,54.41
2023-04-18T18:59:18.655Z,54.16
2023-04-18T19:02:22.584Z,53.97
2023-04-18T19:05:25.264Z,56.18
2023-04-18T19:08:27.948Z,54.57
2023-04-18T19:11:30.345Z,52.61
2023-04-18T19:14:35.761Z,51.74
2023-04-18T19:17:39.584Z,51.69
2023-04-18T19:20:43.047Z,45.69
2023-04-18T19:23:45.822Z,46.11
2023-04-18T19:26:49.265Z,47.74
2023-04-18T19:29:52.200Z,48.27
2023-04-18T19:32:56.518Z,45.91
2023-04-18T19:36:00.498Z,48.40
2023-04-18T19:39:03.377Z,45.15
2023-04-18T19:42:06.245Z,49.90
2023-04-18T19:45:12.695Z,53.72
2023-04-18T19:48:17.101Z,48.31
2023-04-18T19:51:22.158Z,49.57
2023-04-18T19:54:24.974Z,47.87
2023-04-18T19:57:29.070Z,50.18
2023-04-18T20:00:31.926Z,50.84
2023-04-18T20:03:35.619Z,50.99
2023-04-18T20:06:38.258Z,54.04
2023-04-18T20:09:40.577Z,50.14
2023-04-18T20:12:43.860Z,48.16
2023-04-18T20:15:46.920Z,50.41
2023-04-18T20:18:55.062Z,50.77
2023-04-18T20:21:58.531Z,51.33
2023-04-18T20:25:01.704Z,50.47
2023-04-18T20:28:04.924Z,50.97
2023-04-18T20:31:08.118Z,50.18
2023-04-18T20:34:11.882Z,49.51
2023-04-18T20:37:16.521Z,50.47
2023-04-18T20:40:18.694Z,50.21
2023-04-18T20:43:20.788Z,51.21
2023-04-18T20:46:25.024Z,52.71
2023-04-18T20:49:29.730Z,54.54
2023-04-18T20:52:32.989Z,51.27
2023-04-18T20:55:35.172Z,52.40
2023-04-18T20:58:36.955Z,54.00
2023-04-18T21:01:38.753Z,53.23
2023-04-18T21:04:42.137Z,51.16
2023-04-18T21:07:45.837Z,49.96
2023-04-18T21:10:47.805Z,50.01
2023-04-18T21:13:49.691Z,49.42
2023-04-18T21:16:51.511Z,45.88
2023-04-18T21:19:55.917Z,46.51
2023-04-18T21:22:58.497Z,47.25
2023-04-18T21:26:00.687Z,46.23
2023-04-18T21:29:06.645Z,47.23
2023-04-18T21:32:09.479Z,46.60
2023-04-18T21:35:12.883Z,46.47
2023-04-18T21:38:15.415Z,45.59
2023-04-18T21:41:17.249Z,45.62
2023-04-18T21:44:19.704Z,46.02
2023-04-18T21:47:21.831Z,45.47
2023-04-18T21:50:25.860Z,45.71
2023-04-18T21:53:27.674Z,46.08
2023-04-18T21:56:29.456Z,47.15
2023-04-18T21:59:31.348Z,45.21
2023-04-18T22:02:33.211Z,46.63
2023-04-18T22:05:39.004Z,45.34
2023-04-18T22:08:42.067Z,46.86
2023-04-18T22:11:43.933Z,45.72
2023-04-18T22:14:48.460Z,46.08
2023-04-18T22:17:50.612Z,47.01
2023-04-18T22:20:54.911Z,46.08
2023-04-18T22:27:26.309Z,45.39
2023-04-18T22:30:28.558Z,46.43
2023-04-18T22:33:30.511Z,45.89
2023-04-18T22:36:34.690Z,45.77
2023-04-18T22:39:36.492Z,46.73
2023-04-18T22:42:38.954Z,49.78
2023-04-18T22:45:41.312Z,48.15
2023-04-18T22:48:44.871Z,47.55
2023-04-18T22:51:48.629Z,47.01
2023-04-18T22:54:50.667Z,46.57
2023-04-18T22:57:52.463Z,47.03
2023-04-18T23:00:54.290Z,46.32
2023-04-18T23:03:56.579Z,47.00
2023-04-18T23:07:00.622Z,48.26
2023-04-18T23:10:04.824Z,46.05
2023-04-18T23:13:06.612Z,48.90
2023-04-18T23:16:08.682Z,45.56
2023-04-18T23:19:10.712Z,45.69
2023-04-18T23:22:14.691Z,46.03
2023-04-18T23:25:16.633Z,49.22
2023-04-18T23:28:19.181Z,46.72
2023-04-18T23:31:22.062Z,50.30
2023-04-18T23:34:24.223Z,45.56
2023-04-18T23:37:27.468Z,44.98
2023-04-18T23:40:30.320Z,47.18
2023-04-18T23:43:32.273Z,47.06
2023-04-18T23:46:36.499Z,48.28
2023-04-18T23:49:38.624Z,49.35
2023-04-18T23:52:42.571Z,45.20
2023-04-18T23:55:44.473Z,48.08
2023-04-18T23:58:47.038Z,46.86
